Time;durP1;ratioP1;P1;durP2;ratioP2;P2;SDS_P1;SDS_P2;PMS_P1;PMS_P2;Temp;Humidity;BMP_temperature;BMP_pressure;BME280_temperature;BME280_humidity;BME280_pressure;Samples;Min_cycle;Max_cycle;Signal;HPM_P1;HPM_P2
2024/01/26 00:00:13;;;;;;;;;;;;;;;16.97;60.54;99615.47;2075990;28;19928;-70
2024/01/26 00:01:15;;;;;;;;;;;;;;;16.97;60.54;99614.66;2082866;28;20036;-69
2024/01/26 00:02:15;;;;;;;;;;;;;;;16.96;60.61;99618.31;2080572;28;19929;-70
2024/01/26 00:03:17;;;;;;;;;;;;;;;16.96;60.59;99621.00;2078325;28;19999;-69
2024/01/26 00:04:17;;;;;;;;;;;;;;;16.95;60.62;99611.28;2077945;28;19929;-70
2024/01/26 00:05:19;;;;;;;;;;;;;;;16.94;60.71;99613.13;2080697;28;20682;-68
2024/01/26 00:06:20;;;;;;;;;;;;;;;16.95;60.79;99604.09;2077556;28;20346;-69
2024/01/26 00:07:21;;;;;;;;;;;;;;;16.95;60.88;99600.56;2080727;28;19979;-69
2024/01/26 00:08:22;;;;;;;;;;;;;;;16.92;60.83;99600.91;2081043;28;19929;-69
2024/01/26 00:09:23;;;;;;;;;;;;;;;16.92;60.70;99596.38;2080454;28;19972;-70
2024/01/26 00:10:24;;;;;;;;;;;;;;;16.92;60.65;99598.22;2075976;28;19929;-70
2024/01/26 00:11:26;;;;;;;;;;;;;;;16.94;60.61;99593.56;2077480;28;19948;-68
2024/01/26 00:12:28;;;;;;;;;;;;;;;16.93;60.70;99590.00;2078440;28;19932;-70
2024/01/26 00:13:29;;;;;;;;;;;;;;;16.95;60.62;99600.56;2079118;28;19925;-68
2024/01/26 00:14:30;;;;;;;;;;;;;;;16.92;60.76;99595.56;2076612;28;19940;-68
2024/01/26 00:15:32;;;;;;;;;;;;;;;16.91;60.66;99588.50;2081012;28;19963;-69
2024/01/26 00:16:32;;;;;;;;;;;;;;;16.91;60.84;99592.03;2078875;28;20229;-68
2024/01/26 00:17:34;;;;;;;;;;;;;;;16.90;60.63;99587.66;2075582;28;20517;-69
2024/01/26 00:18:35;;;;;;;;;;;;;;;16.91;60.66;99599.22;2079963;28;19929;-68
2024/01/26 00:19:36;;;;;;;;;;;;;;;16.91;60.86;99593.84;2076471;28;20411;-70
2024/01/26 00:20:37;;;;;;;;;;;;;;;16.91;60.68;99592.03;2079788;28;19936;-69
2024/01/26 00:21:37;;;;;;;;;;;;;;;16.90;60.80;99601.06;2077689;28;19964;-69
2024/01/26 00:22:39;;;;;;;;;;;;;;;16.87;60.85;99593.38;2074099;28;19932;-69
2024/01/26 00:23:39;;;;;;;;;;;;;;;16.90;60.86;99594.88;2078885;28;19964;-69
2024/01/26 00:24:41;;;;;;;;;;;;;;;16.89;60.79;99591.38;2076932;28;20380;-70
2024/01/26 00:25:42;;;;;;;;;;;;;;;16.85;60.77;99597.22;2077400;28;20459;-69
2024/01/26 00:26:43;;;;;;;;;;;;;;;16.89;60.71;99590.53;2078618;28;20027;-68
2024/01/26 00:27:45;;;;;;;;;;;;;;;16.86;60.77;99597.06;2077453;28;21092;-70
2024/01/26 00:28:47;;;;;;;;;;;;;;;16.87;60.79;99593.38;2073680;28;19940;-68
2024/01/26 00:29:48;;;;;;;;;;;;;;;16.88;60.77;99596.88;2079094;28;20408;-69
2024/01/26 00:30:49;;;;;;;;;;;;;;;16.87;60.74;99597.91;2073763;28;20023;-71
2024/01/26 00:31:50;;;;;;;;;;;;;;;16.86;60.76;99598.91;2078179;28;19929;-69
2024/01/26 00:32:51;;;;;;;;;;;;;;;16.87;60.83;99597.91;2078094;28;20016;-69
2024/01/26 00:33:52;;;;;;;;;;;;;;;16.88;60.75;99599.56;2077038;28;19924;-69
2024/01/26 00:34:53;;;;;;;;;;;;;;;16.88;60.80;99596.88;2078220;28;20032;-69
2024/01/26 00:35:54;;;;;;;;;;;;;;;16.89;60.68;99601.25;2077261;28;20419;-69
2024/01/26 00:36:58;;;;;;;;;;;;;;;16.87;60.70;99601.41;2079448;28;19925;-70
2024/01/26 00:37:59;;;;;;;;;;;;;;;16.87;60.70;99597.91;2077109;28;19975;-69
2024/01/26 00:39:00;;;;;;;;;;;;;;;16.89;60.57;99603.94;2071483;28;19933;-69
2024/01/26 00:40:01;;;;;;;;;;;;;;;16.88;60.82;99604.91;2080241;28;20375;-69
2024/01/26 00:41:02;;;;;;;;;;;;;;;16.84;60.71;99599.06;2078103;28;19929;-69
2024/01/26 00:42:03;;;;;;;;;;;;;;;16.84;60.75;99600.91;2079617;28;19932;-68
2024/01/26 00:43:06;;;;;;;;;;;;;;;16.85;60.75;99600.72;2077576;28;19976;-68
2024/01/26 00:44:07;;;;;;;;;;;;;;;16.85;60.62;99600.72;2078834;28;19928;-69
2024/01/26 00:45:09;;;;;;;;;;;;;;;16.87;60.74;99589.84;2078291;28;19979;-69
2024/01/26 00:46:09;;;;;;;;;;;;;;;16.87;60.70;99603.25;2080666;28;20480;-69
2024/01/26 00:47:11;;;;;;;;;;;;;;;16.84;60.74;99593.72;2078658;28;20004;-68
2024/01/26 00:48:11;;;;;;;;;;;;;;;16.86;60.44;99591.72;2077521;28;19929;-70
2024/01/26 00:49:13;;;;;;;;;;;;;;;16.85;60.74;99597.22;2080711;28;19971;-70
2024/01/26 00:50:14;;;;;;;;;;;;;;;16.84;60.57;99600.91;2078747;28;19929;-69
2024/01/26 00:51:16;;;;;;;;;;;;;;;16.86;60.76;99599.75;2079261;28;19999;-69
2024/01/26 00:52:17;;;;;;;;;;;;;;;16.85;60.66;99599.91;2081616;28;19936;-69
2024/01/26 00:53:19;;;;;;;;;;;;;;;16.82;60.76;99601.06;2079541;28;20309;-70
2024/01/26 00:54:19;;;;;;;;;;;;;;;16.81;60.78;99603.94;2074688;28;19929;-70
2024/01/26 00:55:22;;;;;;;;;;;;;;;16.80;60.83;99602.25;2079946;28;20008;-70
2024/01/26 00:56:23;;;;;;;;;;;;;;;16.81;60.89;99609.28;2077909;28;20462;-69
2024/01/26 00:57:24;;;;;;;;;;;;;;;16.81;60.67;99609.28;2077432;28;19935;-69
2024/01/26 00:58:26;;;;;;;;;;;;;;;16.79;60.76;99606.78;2076707;28;20392;-70
2024/01/26 00:59:28;;;;;;;;;;;;;;;16.81;60.66;99612.81;2078315;28;20365;-69
2024/01/26 01:00:29;;;;;;;;;;;;;;;16.78;60.76;99605.09;2077656;28;19933;-69
2024/01/26 01:01:30;;;;;;;;;;;;;;;16.79;60.86;99597.91;2075085;28;19929;-70
2024/01/26 01:02:31;;;;;;;;;;;;;;;16.81;60.73;99598.56;2077377;28;19928;-70
2024/01/26 01:03:32;;;;;;;;;;;;;;;16.80;60.66;99603.09;2079551;28;19933;-69
2024/01/26 01:04:33;;;;;;;;;;;;;;;16.83;60.62;99605.44;2077786;28;19932;-70
2024/01/26 01:05:35;;;;;;;;;;;;;;;16.78;60.59;99604.28;2076863;28;19928;-70
2024/01/26 01:06:36;;;;;;;;;;;;;;;16.79;60.74;99605.94;2076317;28;19941;-70
2024/01/26 01:07:37;;;;;;;;;;;;;;;16.79;60.69;99597.91;2077340;28;20012;-70
2024/01/26 01:08:38;;;;;;;;;;;;;;;16.77;60.86;99608.81;2079668;28;19937;-70
2024/01/26 01:09:41;;;;;;;;;;;;;;;16.79;60.77;99595.22;2078664;28;19937;-70
2024/01/26 01:10:42;;;;;;;;;;;;;;;16.82;60.67;99594.88;2077580;28;20355;-69
2024/01/26 01:11:43;;;;;;;;;;;;;;;16.83;60.60;99596.56;2081310;28;19933;-69
2024/01/26 01:12:44;;;;;;;;;;;;;;;16.81;60.52;99598.56;2076832;28;20093;-68
2024/01/26 01:13:47;;;;;;;;;;;;;;;16.81;60.55;99603.94;2075355;28;20032;-70
2024/01/26 01:14:48;;;;;;;;;;;;;;;16.81;60.64;99598.56;2075569;28;20509;-69
2024/01/26 01:15:50;;;;;;;;;;;;;;;16.80;60.70;99602.25;2080789;28;20007;-70
2024/01/26 01:16:52;;;;;;;;;;;;;;;16.80;60.62;99600.44;2081540;28;19937;-69
2024/01/26 01:17:52;;;;;;;;;;;;;;;16.78;60.58;99594.38;2076279;28;20163;-69
2024/01/26 01:18:54;;;;;;;;;;;;;;;16.83;60.50;99599.25;2077632;28;19929;-70
2024/01/26 01:19:55;;;;;;;;;;;;;;;16.80;60.67;99602.25;2079420;28;19926;-69
2024/01/26 01:20:55;;;;;;;;;;;;;;;16.81;60.42;99602.09;2080599;28;20048;-69
2024/01/26 01:21:57;;;;;;;;;;;;;;;16.82;60.52;99611.78;2076400;28;19936;-70
2024/01/26 01:22:58;;;;;;;;;;;;;;;16.79;60.53;99611.28;2077724;28;20412;-70
2024/01/26 01:24:00;;;;;;;;;;;;;;;16.79;60.63;99605.94;2074984;28;19928;-70
2024/01/26 01:25:01;;;;;;;;;;;;;;;16.79;60.53;99611.28;2074971;28;25217;-69
2024/01/26 01:26:03;;;;;;;;;;;;;;;16.75;60.57;99605.41;2078884;28;19955;-69
2024/01/26 01:27:04;;;;;;;;;;;;;;;16.72;60.84;99601.22;2077361;28;20435;-70
2024/01/26 01:28:05;;;;;;;;;;;;;;;16.76;60.63;99607.06;2077033;28;20032;-69
2024/01/26 01:29:07;;;;;;;;;;;;;;;16.76;60.57;99607.06;2080296;28;19935;-68
2024/01/26 01:30:09;;;;;;;;;;;;;;;16.77;60.65;99607.94;2074651;28;19929;-70
2024/01/26 01:31:10;;;;;;;;;;;;;;;16.74;60.71;99617.13;2079232;28;19932;-69
2024/01/26 01:32:12;;;;;;;;;;;;;;;16.73;60.70;99627.00;2079886;28;19928;-68
2024/01/26 01:33:13;;;;;;;;;;;;;;;16.75;60.67;99622.31;2069701;28;19929;-68
2024/01/26 01:34:13;;;;;;;;;;;;;;;16.76;60.65;99623.16;2074985;28;20416;-69
2024/01/26 01:35:15;;;;;;;;;;;;;;;16.76;60.50;99620.47;2077635;28;19968;-69
2024/01/26 01:36:16;;;;;;;;;;;;;;;16.75;60.63;99633.03;2074049;28;19925;-70
2024/01/26 01:37:17;;;;;;;;;;;;;;;16.72;60.67;99628.00;2078678;28;20019;-68
2024/01/26 01:38:18;;;;;;;;;;;;;;;16.74;60.64;99633.19;2077129;28;20387;-70
2024/01/26 01:39:20;;;;;;;;;;;;;;;16.75;60.47;99633.03;2076515;28;19925;-69
2024/01/26 01:40:20;;;;;;;;;;;;;;;16.78;60.39;99631.91;2077725;28;20293;-69
2024/01/26 01:41:22;;;;;;;;;;;;;;;16.77;60.29;99629.38;2077308;28;19983;-70
2024/01/26 01:42:23;;;;;;;;;;;;;;;16.78;60.33;99623.84;2079263;28;19929;-70
2024/01/26 01:43:25;;;;;;;;;;;;;;;16.79;60.51;99627.38;2077069;28;20295;-69
2024/01/26 01:44:27;;;;;;;;;;;;;;;16.75;60.48;99625.00;2075175;28;19928;-69
2024/01/26 01:45:28;;;;;;;;;;;;;;;16.73;60.55;99624.31;2077966;28;20345;-69
2024/01/26 01:46:29;;;;;;;;;;;;;;;16.78;60.40;99620.34;2076983;28;19925;-68
2024/01/26 01:47:31;;;;;;;;;;;;;;;16.77;60.59;99622.19;2076672;28;20015;-69
2024/01/26 01:48:31;;;;;;;;;;;;;;;16.77;60.48;99618.66;2078829;28;19929;-70
2024/01/26 01:49:33;;;;;;;;;;;;;;;16.79;60.49;99622.00;2076811;28;19983;-69
2024/01/26 01:50:34;;;;;;;;;;;;;;;16.77;60.40;99615.97;2075476;28;19982;-68
2024/01/26 01:51:36;;;;;;;;;;;;;;;16.71;60.55;99614.78;2077781;28;19929;-69
2024/01/26 01:52:40;;;;;;;;;;;;;;;16.75;60.53;99605.41;2080068;28;19935;-69
2024/01/26 01:53:41;;;;;;;;;;;;;;;16.77;60.48;99610.63;2074644;28;19941;-68
2024/01/26 01:54:42;;;;;;;;;;;;;;;16.77;60.49;99607.94;2077262;28;19929;-69
2024/01/26 01:55:43;;;;;;;;;;;;;;;16.79;60.31;99608.63;2079983;28;19932;-69
2024/01/26 01:56:45;;;;;;;;;;;;;;;16.78;60.39;99609.63;2080924;28;19929;-68
2024/01/26 01:57:46;;;;;;;;;;;;;;;16.75;60.33;99611.59;2077014;28;19925;-68
2024/01/26 01:58:48;;;;;;;;;;;;;;;16.75;60.41;99606.25;2075604;28;20040;-69
2024/01/26 01:59:51;;;;;;;;;;;;;;;16.76;60.31;99604.41;2078569;28;19928;-71
2024/01/26 02:00:51;;;;;;;;;;;;;;;16.76;60.30;99607.06;2076132;28;19940;-68
2024/01/26 02:01:53;;;;;;;;;;;;;;;16.77;60.24;99599.91;2077222;28;19968;-69
2024/01/26 02:02:53;;;;;;;;;;;;;;;16.76;60.31;99601.72;2078106;28;19939;-68
2024/01/26 02:04:00;;;;;;;;;;;;;;;16.77;60.34;99602.59;2074548;28;20544;-70
2024/01/26 02:05:01;;;;;;;;;;;;;;;16.77;60.32;99610.63;2077624;28;20024;-70
2024/01/26 02:06:03;;;;;;;;;;;;;;;16.75;60.25;99602.72;2080249;28;19935;-69
2024/01/26 02:07:03;;;;;;;;;;;;;;;16.75;60.33;99605.41;2076939;28;19933;-71
2024/01/26 02:08:04;;;;;;;;;;;;;;;16.73;60.37;99602.88;2080670;28;19928;-69
2024/01/26 02:09:06;;;;;;;;;;;;;;;16.73;60.50;99610.94;2076622;28;19928;-69
2024/01/26 02:10:07;;;;;;;;;;;;;;;16.73;60.45;99608.25;2081434;28;20002;-69
2024/01/26 02:11:09;;;;;;;;;;;;;;;16.74;60.36;99609.94;2079132;28;20023;-69
2024/01/26 02:12:10;;;;;;;;;;;;;;;16.73;60.37;99613.59;2077808;28;19933;-69
2024/01/26 02:13:11;;;;;;;;;;;;;;;16.71;60.30;99610.25;2076681;28;19998;-69
2024/01/26 02:14:12;;;;;;;;;;;;;;;16.72;60.35;99606.59;2075945;28;19976;-69
2024/01/26 02:15:15;;;;;;;;;;;;;;;16.74;60.31;99606.41;2071710;28;20667;-68
2024/01/26 02:16:15;;;;;;;;;;;;;;;16.73;60.41;99612.78;2077933;28;19936;-70
2024/01/26 02:17:17;;;;;;;;;;;;;;;16.70;60.47;99611.25;2076815;28;20448;-69
2024/01/26 02:18:18;;;;;;;;;;;;;;;16.72;60.40;99619.16;2080015;28;19933;-69
2024/01/26 02:19:18;;;;;;;;;;;;;;;16.73;60.44;99623.50;2077956;28;20051;-68
2024/01/26 02:20:20;;;;;;;;;;;;;;;16.74;60.26;99623.34;2080587;28;19986;-69
2024/01/26 02:21:20;;;;;;;;;;;;;;;16.70;60.33;99624.66;2078734;28;19933;-69
2024/01/26 02:22:22;;;;;;;;;;;;;;;16.70;60.62;99629.19;2080103;28;20047;-69
2024/01/26 02:23:24;;;;;;;;;;;;;;;16.68;60.48;99626.66;2077283;28;20495;-69
2024/01/26 02:24:26;;;;;;;;;;;;;;;16.70;60.36;99618.47;2078053;28;19944;-68
2024/01/26 02:25:26;;;;;;;;;;;;;;;16.71;60.40;99625.50;2078824;28;19925;-69
2024/01/26 02:26:30;;;;;;;;;;;;;;;16.71;60.23;99625.50;2077212;28;21378;-69
2024/01/26 02:27:30;;;;;;;;;;;;;;;16.72;60.17;99621.81;2077053;28;19925;-69
2024/01/26 02:28:32;;;;;;;;;;;;;;;16.71;60.22;99615.59;2077787;28;19970;-70
2024/01/26 02:29:33;;;;;;;;;;;;;;;16.71;60.25;99620.13;2075491;28;20476;-70
2024/01/26 02:30:36;;;;;;;;;;;;;;;16.70;60.33;99615.78;2074874;28;19995;-69
2024/01/26 02:31:37;;;;;;;;;;;;;;;16.71;60.22;99614.78;2078913;28;20076;-71
2024/01/26 02:32:37;;;;;;;;;;;;;;;16.71;60.35;99618.28;2080650;28;19963;-69
2024/01/26 02:33:39;;;;;;;;;;;;;;;16.68;60.30;99610.59;2080191;28;19929;-69
2024/01/26 02:34:40;;;;;;;;;;;;;;;16.68;60.37;99610.59;2078703;28;19940;-71
2024/01/26 02:35:41;;;;;;;;;;;;;;;16.66;60.46;99611.75;2077011;28;20404;-70
2024/01/26 02:36:42;;;;;;;;;;;;;;;16.68;60.33;99609.75;2076958;28;19928;-69
2024/01/26 02:37:42;;;;;;;;;;;;;;;16.67;60.47;99611.59;2077728;28;20445;-70
2024/01/26 02:38:45;;;;;;;;;;;;;;;16.67;60.34;99611.59;2073221;28;19929;-69
2024/01/26 02:39:46;;;;;;;;;;;;;;;16.65;60.14;99608.25;2076896;28;19963;-69
2024/01/26 02:40:48;;;;;;;;;;;;;;;16.67;60.27;99619.63;2077597;28;20443;-69
2024/01/26 02:41:49;;;;;;;;;;;;;;;16.68;60.44;99620.47;2077089;28;19947;-69
2024/01/26 02:42:49;;;;;;;;;;;;;;;16.67;60.33;99619.63;2078832;28;20427;-70
2024/01/26 02:43:51;;;;;;;;;;;;;;;16.67;60.31;99618.81;2075097;28;19976;-69
2024/01/26 02:44:52;;;;;;;;;;;;;;;16.66;60.33;99617.09;2079245;28;20415;-69
2024/01/26 02:45:53;;;;;;;;;;;;;;;16.67;60.31;99621.47;2080195;28;19933;-68
2024/01/26 02:46:54;;;;;;;;;;;;;;;16.66;60.43;99628.69;2078348;28;20037;-70
2024/01/26 02:47:56;;;;;;;;;;;;;;;16.64;60.33;99628.00;2079190;28;19928;-70
2024/01/26 02:48:57;;;;;;;;;;;;;;;16.64;60.38;99628.00;2077588;28;19924;-69
2024/01/26 02:49:58;;;;;;;;;;;;;;;16.62;60.44;99627.34;2075719;28;19925;-70
2024/01/26 02:50:59;;;;;;;;;;;;;;;16.63;60.47;99621.00;2077468;28;19933;-68
2024/01/26 02:52:00;;;;;;;;;;;;;;;16.65;60.35;99615.44;2074703;28;19968;-70
2024/01/26 02:53:01;;;;;;;;;;;;;;;16.64;60.50;99619.97;2076788;28;19932;-70
2024/01/26 02:54:04;;;;;;;;;;;;;;;16.64;60.29;99619.97;2077952;28;19976;-71
2024/01/26 02:55:05;;;;;;;;;;;;;;;16.64;60.36;99614.63;2076614;28;20303;-70
2024/01/26 02:56:07;;;;;;;;;;;;;;;16.62;60.46;99611.25;2077401;28;20019;-70
2024/01/26 02:57:08;;;;;;;;;;;;;;;16.61;60.49;99619.47;2070978;28;19929;-70
2024/01/26 02:58:09;;;;;;;;;;;;;;;16.62;60.40;99623.81;2077611;28;20470;-70
2024/01/26 02:59:10;;;;;;;;;;;;;;;16.62;60.25;99621.97;2071485;28;19940;-69
2024/01/26 03:00:12;;;;;;;;;;;;;;;16.60;60.34;99613.25;2072916;28;20011;-69
2024/01/26 03:01:13;;;;;;;;;;;;;;;16.63;60.37;99612.09;2075162;28;19925;-70
2024/01/26 03:02:14;;;;;;;;;;;;;;;16.61;60.42;99614.94;2076940;28;19979;-69
2024/01/26 03:03:15;;;;;;;;;;;;;;;16.62;60.38;99613.94;2075022;28;19936;-68
2024/01/26 03:04:18;;;;;;;;;;;;;;;16.61;60.37;99612.28;2074170;28;19971;-70
2024/01/26 03:05:19;;;;;;;;;;;;;;;16.61;60.36;99609.59;2075089;28;19933;-68
2024/01/26 03:06:21;;;;;;;;;;;;;;;16.62;60.36;99605.91;2075407;28;20008;-70
2024/01/26 03:07:21;;;;;;;;;;;;;;;16.62;60.39;99610.44;2073799;28;20404;-69
2024/01/26 03:08:23;;;;;;;;;;;;;;;16.59;60.31;99608.91;2078997;28;20019;-70
2024/01/26 03:09:25;;;;;;;;;;;;;;;16.60;60.30;99602.53;2075459;28;20556;-69
2024/01/26 03:10:27;;;;;;;;;;;;;;;16.60;60.35;99610.56;2077831;28;19971;-69
2024/01/26 03:11:35;;;;;;;;;;;;;;;16.58;60.46;99604.56;2078281;28;20038;-69
2024/01/26 03:12:37;;;;;;;;;;;;;;;16.60;60.32;99605.22;2076481;28;19928;-69
2024/01/26 03:13:37;;;;;;;;;;;;;;;16.60;60.21;99604.38;2076324;28;20315;-68
2024/01/26 03:14:39;;;;;;;;;;;;;;;16.60;60.46;99612.44;2076536;28;19963;-69
2024/01/26 03:15:39;;;;;;;;;;;;;;;16.59;60.33;99610.75;2075931;28;20316;-70
2024/01/26 03:16:41;;;;;;;;;;;;;;;16.56;60.35;99601.22;2076518;28;20004;-69
2024/01/26 03:17:42;;;;;;;;;;;;;;;16.58;60.28;99609.09;2076135;28;19933;-71
2024/01/26 03:18:44;;;;;;;;;;;;;;;16.56;60.45;99606.56;2075633;28;20020;-70
2024/01/26 03:19:44;;;;;;;;;;;;;;;16.56;60.46;99611.94;2078103;28;19932;-70
2024/01/26 03:20:46;;;;;;;;;;;;;;;16.54;60.35;99611.25;2075882;28;19960;-70
2024/01/26 03:21:46;;;;;;;;;;;;;;;16.57;60.35;99604.72;2076781;28;19929;-69
2024/01/26 03:22:48;;;;;;;;;;;;;;;16.56;60.38;99609.25;2076476;28;19983;-69
2024/01/26 03:23:49;;;;;;;;;;;;;;;16.54;60.48;99604.03;2075505;28;19929;-70
2024/01/26 03:24:52;;;;;;;;;;;;;;;16.56;60.44;99603.06;2074287;28;20035;-69
2024/01/26 03:25:52;;;;;;;;;;;;;;;16.56;60.35;99595.88;2076921;28;19936;-69
2024/01/26 03:26:54;;;;;;;;;;;;;;;16.54;60.46;99601.38;2075807;28;20048;-69
2024/01/26 03:27:55;;;;;;;;;;;;;;;16.57;60.36;99596.69;2076712;28;19928;-69
2024/01/26 03:28:56;;;;;;;;;;;;;;;16.57;60.02;99602.88;2075077;28;19929;-69
2024/01/26 03:29:57;;;;;;;;;;;;;;;16.57;60.35;99600.19;2076779;28;20022;-69
2024/01/26 03:30:58;;;;;;;;;;;;;;;16.57;60.29;99608.25;2077433;28;19933;-69
2024/01/26 03:31:59;;;;;;;;;;;;;;;16.58;60.31;99607.25;2069715;28;20092;-69
2024/01/26 03:33:00;;;;;;;;;;;;;;;16.59;60.26;99608.91;2079129;28;20036;-70
2024/01/26 03:34:02;;;;;;;;;;;;;;;16.58;60.24;99615.28;2079550;28;19936;-70
2024/01/26 03:35:03;;;;;;;;;;;;;;;16.57;60.25;99610.91;2076143;28;19932;-70
2024/01/26 03:36:05;;;;;;;;;;;;;;;16.53;60.29;99612.28;2078166;28;21210;-69
2024/01/26 03:37:05;;;;;;;;;;;;;;;16.54;60.39;99611.25;2078154;28;24767;-70
2024/01/26 03:38:07;;;;;;;;;;;;;;;16.54;60.29;99613.94;2075629;28;19929;-69
2024/01/26 03:39:09;;;;;;;;;;;;;;;16.51;60.36;99608.91;2075735;28;19929;-70
2024/01/26 03:40:12;;;;;;;;;;;;;;;16.52;60.43;99613.28;2076162;28;19928;-70
2024/01/26 03:41:13;;;;;;;;;;;;;;;16.54;60.40;99621.97;2075423;28;20332;-69
2024/01/26 03:42:15;;;;;;;;;;;;;;;16.52;60.20;99614.13;2079860;28;19952;-71
2024/01/26 03:43:15;;;;;;;;;;;;;;;16.52;60.35;99610.59;2076568;28;19929;-69
2024/01/26 03:44:16;;;;;;;;;;;;;;;16.52;60.41;99610.59;2077355;28;20009;-71
2024/01/26 03:45:18;;;;;;;;;;;;;;;16.48;60.47;99606.56;2078508;28;20490;-69
2024/01/26 03:46:20;;;;;;;;;;;;;;;16.50;60.57;99621.47;2075049;28;19929;-69
2024/01/26 03:47:21;;;;;;;;;;;;;;;16.51;60.34;99619.63;2079486;28;19929;-71
2024/01/26 03:48:22;;;;;;;;;;;;;;;16.49;60.54;99624.28;2076767;28;19929;-71
2024/01/26 03:49:23;;;;;;;;;;;;;;;16.49;60.17;99622.47;2078563;28;19956;-71
2024/01/26 03:50:24;;;;;;;;;;;;;;;16.51;60.32;99616.94;2078468;28;19933;-70
2024/01/26 03:51:26;;;;;;;;;;;;;;;16.52;60.30;99621.31;2077093;28;20405;-69
2024/01/26 03:52:26;;;;;;;;;;;;;;;16.50;60.37;99620.63;2078427;28;19933;-70
2024/01/26 03:53:28;;;;;;;;;;;;;;;16.50;60.37;99628.66;2077422;28;19947;-68
2024/01/26 03:54:28;;;;;;;;;;;;;;;16.49;60.34;99624.28;2076436;28;20012;-70
2024/01/26 03:55:30;;;;;;;;;;;;;;;16.50;60.39;99623.31;2077807;28;20036;-69
2024/01/26 03:56:32;;;;;;;;;;;;;;;16.50;60.34;99626.00;2076771;28;21539;-69
2024/01/26 03:57:33;;;;;;;;;;;;;;;16.50;60.33;99623.31;2075759;28;20316;-69
2024/01/26 03:58:35;;;;;;;;;;;;;;;16.47;60.47;99624.47;2077810;28;20393;-70
2024/01/26 03:59:35;;;;;;;;;;;;;;;16.49;60.26;99627.84;2076809;28;20384;-70
2024/01/26 04:00:37;;;;;;;;;;;;;;;16.48;60.33;99622.63;2077426;28;19991;-70
2024/01/26 04:01:37;;;;;;;;;;;;;;;16.49;60.33;99617.13;2076758;28;19929;-68
2024/01/26 04:02:38;;;;;;;;;;;;;;;16.49;60.33;99610.91;2078130;28;20048;-69
2024/01/26 04:03:40;;;;;;;;;;;;;;;16.50;60.31;99609.94;2078726;28;19960;-68
2024/01/26 04:04:40;;;;;;;;;;;;;;;16.47;60.31;99608.41;2080273;28;19939;-68
2024/01/26 04:05:42;;;;;;;;;;;;;;;16.45;60.42;99610.41;2077515;28;19938;-69
2024/01/26 04:06:42;;;;;;;;;;;;;;;16.44;60.41;99610.59;2078217;28;19929;-68
2024/01/26 04:07:44;;;;;;;;;;;;;;;16.46;60.36;99603.22;2073745;28;19964;-70
2024/01/26 04:08:44;;;;;;;;;;;;;;;16.45;60.38;99607.72;2077845;28;19933;-68
2024/01/26 04:09:45;;;;;;;;;;;;;;;16.41;60.53;99602.88;2077100;28;19925;-69
2024/01/26 04:10:48;;;;;;;;;;;;;;;16.43;60.40;99604.38;2077048;28;19929;-68
2024/01/26 04:11:49;;;;;;;;;;;;;;;16.44;60.37;99602.56;2078477;28;19929;-70
2024/01/26 04:12:50;;;;;;;;;;;;;;;16.43;60.43;99599.03;2078459;28;19968;-69
2024/01/26 04:13:51;;;;;;;;;;;;;;;16.43;60.39;99592.84;2080763;28;19925;-69
2024/01/26 04:14:51;;;;;;;;;;;;;;;16.43;60.34;99593.66;2079245;28;20371;-70
2024/01/26 04:15:53;;;;;;;;;;;;;;;16.46;60.28;99590.66;2075225;28;19940;-69
2024/01/26 04:16:54;;;;;;;;;;;;;;;16.45;60.21;99588.16;2081056;28;19924;-70
2024/01/26 04:17:56;;;;;;;;;;;;;;;16.43;60.48;99585.63;2073518;28;20016;-69
2024/01/26 04:18:58;;;;;;;;;;;;;;;16.42;60.43;99585.81;2079254;28;19932;-69
2024/01/26 04:19:58;;;;;;;;;;;;;;;16.43;60.40;99590.16;2077821;28;19936;-69
2024/01/26 04:21:00;;;;;;;;;;;;;;;16.41;60.38;99587.66;2078861;28;20435;-68
2024/01/26 04:22:00;;;;;;;;;;;;;;;16.42;60.41;99585.81;2079049;28;19935;-69
2024/01/26 04:23:02;;;;;;;;;;;;;;;16.41;60.38;99586.81;2079181;28;20008;-70
2024/01/26 04:24:03;;;;;;;;;;;;;;;16.38;60.46;99588.00;2077815;28;19933;-68
2024/01/26 04:25:05;;;;;;;;;;;;;;;16.42;60.43;99593.84;2078069;28;19968;-70
2024/01/26 04:26:07;;;;;;;;;;;;;;;16.40;60.51;99591.31;2079350;28;20551;-69
2024/01/26 04:27:08;;;;;;;;;;;;;;;16.40;60.42;99590.50;2078104;28;19937;-70
2024/01/26 04:28:09;;;;;;;;;;;;;;;16.42;60.46;99588.50;2077588;28;20367;-68
2024/01/26 04:29:11;;;;;;;;;;;;;;;16.41;60.33;99592.16;2079135;28;19933;-70
2024/01/26 04:30:13;;;;;;;;;;;;;;;16.40;60.46;99593.16;2076808;28;19963;-68
2024/01/26 04:31:15;;;;;;;;;;;;;;;16.41;60.41;99598.38;2079121;28;20487;-70
2024/01/26 04:32:15;;;;;;;;;;;;;;;16.42;60.22;99600.03;2078293;28;20009;-69
2024/01/26 04:33:17;;;;;;;;;;;;;;;16.42;60.33;99591.16;2077858;28;20039;-70
2024/01/26 04:34:18;;;;;;;;;;;;;;;16.40;60.39;99590.50;2077253;28;19933;-69
2024/01/26 04:35:19;;;;;;;;;;;;;;;16.40;60.41;99594.00;2077643;28;19961;-70
2024/01/26 04:36:20;;;;;;;;;;;;;;;16.39;60.47;99581.63;2079740;28;19936;-69
2024/01/26 04:37:22;;;;;;;;;;;;;;;16.41;60.35;99592.16;2079248;28;19925;-69
2024/01/26 04:38:23;;;;;;;;;;;;;;;16.40;60.45;99598.53;2076607;28;19929;-69
2024/01/26 04:39:24;;;;;;;;;;;;;;;16.37;60.48;99602.38;2077225;28;19933;-70
2024/01/26 04:40:26;;;;;;;;;;;;;;;16.39;60.45;99599.53;2079694;28;20036;-69
2024/01/26 04:41:29;;;;;;;;;;;;;;;16.37;60.33;99597.00;2075932;28;19928;-69
2024/01/26 04:42:29;;;;;;;;;;;;;;;16.37;60.40;99597.00;2079766;28;20388;-69
2024/01/26 04:43:31;;;;;;;;;;;;;;;16.37;60.40;99593.50;2080250;28;20003;-69
2024/01/26 04:44:31;;;;;;;;;;;;;;;16.34;60.50;99594.66;2077884;28;20581;-69
2024/01/26 04:45:33;;;;;;;;;;;;;;;16.35;60.48;99590.16;2077414;28;19972;-69
2024/01/26 04:46:34;;;;;;;;;;;;;;;16.33;60.54;99587.66;2078123;28;19932;-69
2024/01/26 04:47:35;;;;;;;;;;;;;;;16.35;60.54;99590.16;2078795;28;19975;-68
2024/01/26 04:48:36;;;;;;;;;;;;;;;16.34;60.49;99596.50;2077727;28;19932;-70
2024/01/26 04:49:37;;;;;;;;;;;;;;;16.35;60.61;99592.81;2075935;28;19964;-69
2024/01/26 04:50:38;;;;;;;;;;;;;;;16.37;60.45;99598.84;2073913;28;19929;-67
2024/01/26 04:51:39;;;;;;;;;;;;;;;16.34;60.48;99600.03;2079775;28;20311;-70
2024/01/26 04:52:40;;;;;;;;;;;;;;;16.35;60.47;99604.38;2077112;28;19929;-70
2024/01/26 04:53:41;;;;;;;;;;;;;;;16.35;60.44;99601.69;2079574;28;19990;-71
2024/01/26 04:54:42;;;;;;;;;;;;;;;16.33;60.50;99601.03;2081135;28;20376;-69
2024/01/26 04:55:43;;;;;;;;;;;;;;;16.33;60.45;99595.69;2079187;28;19925;-69
2024/01/26 04:56:45;;;;;;;;;;;;;;;16.32;60.54;99594.00;2077221;28;20596;-69
2024/01/26 04:57:47;;;;;;;;;;;;;;;16.34;60.60;99593.84;2080103;28;21822;-70
2024/01/26 04:58:47;;;;;;;;;;;;;;;16.33;60.56;99605.56;2079679;28;19925;-69
2024/01/26 04:59:49;;;;;;;;;;;;;;;16.33;60.60;99597.53;2078954;28;19964;-69
2024/01/26 05:00:50;;;;;;;;;;;;;;;16.33;60.50;99602.88;2072631;28;20432;-69
2024/01/26 05:01:51;;;;;;;;;;;;;;;16.34;60.51;99593.84;2077847;28;19956;-70
2024/01/26 05:02:52;;;;;;;;;;;;;;;16.35;60.56;99598.19;2081521;28;19972;-69
2024/01/26 05:03:53;;;;;;;;;;;;;;;16.35;60.52;99600.84;2078547;28;20037;-69
2024/01/26 05:04:55;;;;;;;;;;;;;;;16.32;60.51;99599.34;2079443;28;19939;-69
2024/01/26 05:05:56;;;;;;;;;;;;;;;16.33;60.50;99600.22;2078288;28;19932;-69
2024/01/26 05:06:57;;;;;;;;;;;;;;;16.30;60.73;99604.88;2078487;28;20491;-70
2024/01/26 05:07:58;;;;;;;;;;;;;;;16.31;60.57;99609.22;2080959;28;19925;-69
2024/01/26 05:09:00;;;;;;;;;;;;;;;16.31;60.45;99608.38;2077636;28;19972;-68
2024/01/26 05:10:01;;;;;;;;;;;;;;;16.33;60.59;99606.41;2078485;28;19940;-70
2024/01/26 05:11:02;;;;;;;;;;;;;;;16.31;60.61;99613.75;2079792;28;19964;-68
2024/01/26 05:12:06;;;;;;;;;;;;;;;16.29;60.64;99605.03;2078437;28;19929;-68
2024/01/26 05:13:09;;;;;;;;;;;;;;;16.30;60.49;99604.03;2076792;28;19969;-69
2024/01/26 05:14:10;;;;;;;;;;;;;;;16.28;60.87;99604.19;2077002;28;20439;-70
2024/01/26 05:15:12;;;;;;;;;;;;;;;16.27;60.61;99607.06;2078528;28;19944;-70
2024/01/26 05:16:12;;;;;;;;;;;;;;;16.28;60.52;99604.19;2080575;28;19987;-69
2024/01/26 05:17:14;;;;;;;;;;;;;;;16.25;60.64;99599.19;2075066;28;19924;-69
2024/01/26 05:18:15;;;;;;;;;;;;;;;16.24;60.73;99597.50;2079894;28;19933;-70
2024/01/26 05:19:16;;;;;;;;;;;;;;;16.23;60.84;99603.84;2076170;28;20513;-69